sensor_id;sensor_type;location;lat;lon;timestamp;temperature;humidity
60727;DHT22;46577;49.004;12.120;2022-10-16T00:00:42;15.50;99.90
60727;DHT22;46577;49.004;12.120;2022-10-16T00:03:08;15.50;99.90
60727;DHT22;46577;49.004;12.120;2022-10-16T00:05:42;15.50;99.90
60727;DHT22;46577;49.004;12.120;2022-10-16T00:08:09;15.40;99.90
60727;DHT22;46577;49.004;12.120;2022-10-16T00:10:35;15.40;99.90
60727;DHT22;46577;49.004;12.120;2022-10-16T00:13:01;15.40;99.90
60727;DHT22;46577;49.004;12.120;2022-10-16T00:15:26;15.40;99.90
60727;DHT22;46577;49.004;12.120;2022-10-16T00:17:52;15.40;99.90
60727;DHT22;46577;49.004;12.120;2022-10-16T00:20:18;15.40;99.90
60727;DHT22;46577;49.004;12.120;2022-10-16T00:22:43;15.40;99.90
60727;DHT22;46577;49.004;12.120;2022-10-16T00:25:09;15.40;99.90
60727;DHT22;46577;49.004;12.120;2022-10-16T00:27:35;15.40;99.90
60727;DHT22;46577;49.004;12.120;2022-10-16T00:30:01;15.40;99.90
60727;DHT22;46577;49.004;12.120;2022-10-16T00:32:27;15.40;99.90
60727;DHT22;46577;49.004;12.120;2022-10-16T00:34:52;15.40;99.90
60727;DHT22;46577;49.004;12.120;2022-10-16T00:37:20;15.30;99.90
60727;DHT22;46577;49.004;12.120;2022-10-16T00:39:46;15.30;99.90
60727;DHT22;46577;49.004;12.120;2022-10-16T00:42:16;15.30;99.90
60727;DHT22;46577;49.004;12.120;2022-10-16T00:47:29;15.20;99.90
60727;DHT22;46577;49.004;12.120;2022-10-16T00:50:22;15.40;99.90
60727;DHT22;46577;49.004;12.120;2022-10-16T00:52:51;15.30;99.90
60727;DHT22;46577;49.004;12.120;2022-10-16T00:55:18;15.20;99.90
60727;DHT22;46577;49.004;12.120;2022-10-16T00:57:44;15.20;99.90
60727;DHT22;46577;49.004;12.120;2022-10-16T01:00:13;15.20;99.90
60727;DHT22;46577;49.004;12.120;2022-10-16T01:02:39;15.20;99.90
60727;DHT22;46577;49.004;12.120;2022-10-16T01:05:05;15.20;99.90
60727;DHT22;46577;49.004;12.120;2022-10-16T01:10:35;14.20;99.90
60727;DHT22;46577;49.004;12.120;2022-10-16T01:13:18;15.20;99.90
60727;DHT22;46577;49.004;12.120;2022-10-16T01:18:44;15.10;99.90
60727;DHT22;46577;49.004;12.120;2022-10-16T01:21:17;15.20;99.90
60727;DHT22;46577;49.004;12.120;2022-10-16T01:24:03;15.20;99.90
60727;DHT22;46577;49.004;12.120;2022-10-16T01:31:32;15.20;99.90
60727;DHT22;46577;49.004;12.120;2022-10-16T01:34:18;15.20;99.90
60727;DHT22;46577;49.004;12.120;2022-10-16T01:36:56;15.20;99.90
60727;DHT22;46577;49.004;12.120;2022-10-16T01:39:27;15.30;99.90
60727;DHT22;46577;49.004;12.120;2022-10-16T01:42:15;15.30;99.90
60727;DHT22;46577;49.004;12.120;2022-10-16T01:44:43;15.40;99.90
60727;DHT22;46577;49.004;12.120;2022-10-16T01:47:13;15.40;99.90
60727;DHT22;46577;49.004;12.120;2022-10-16T01:49:40;15.40;99.90
60727;DHT22;46577;49.004;12.120;2022-10-16T01:52:09;15.40;99.90
60727;DHT22;46577;49.004;12.120;2022-10-16T01:54:37;15.40;99.90
60727;DHT22;46577;49.004;12.120;2022-10-16T01:57:06;15.40;99.90
60727;DHT22;46577;49.004;12.120;2022-10-16T01:59:35;15.40;99.90
60727;DHT22;46577;49.004;12.120;2022-10-16T02:02:07;15.30;99.90
60727;DHT22;46577;49.004;12.120;2022-10-16T02:04:39;15.30;99.90
60727;DHT22;46577;49.004;12.120;2022-10-16T02:07:07;15.30;99.90
60727;DHT22;46577;49.004;12.120;2022-10-16T02:09:34;15.30;99.90
60727;DHT22;46577;49.004;12.120;2022-10-16T02:12:06;15.20;99.90
60727;DHT22;46577;49.004;12.120;2022-10-16T02:14:34;15.20;99.90
60727;DHT22;46577;49.004;12.120;2022-10-16T02:17:11;15.10;99.90
60727;DHT22;46577;49.004;12.120;2022-10-16T02:19:36;15.10;99.90
60727;DHT22;46577;49.004;12.120;2022-10-16T02:22:08;15.10;99.90
60727;DHT22;46577;49.004;12.120;2022-10-16T02:24:39;15.10;99.90
60727;DHT22;46577;49.004;12.120;2022-10-16T02:29:41;15.10;99.90
60727;DHT22;46577;49.004;12.120;2022-10-16T02:32:10;15.10;99.90
60727;DHT22;46577;49.004;12.120;2022-10-16T02:34:39;15.00;99.90
60727;DHT22;46577;49.004;12.120;2022-10-16T02:37:06;15.00;99.90
60727;DHT22;46577;49.004;12.120;2022-10-16T02:39:33;15.20;99.90
60727;DHT22;46577;49.004;12.120;2022-10-16T02:41:59;15.00;99.90
60727;DHT22;46577;49.004;12.120;2022-10-16T02:44:24;15.00;99.90
60727;DHT22;46577;49.004;12.120;2022-10-16T02:46:50;15.10;99.90
60727;DHT22;46577;49.004;12.120;2022-10-16T02:49:16;15.00;99.90
60727;DHT22;46577;49.004;12.120;2022-10-16T02:51:41;15.00;99.90
60727;DHT22;46577;49.004;12.120;2022-10-16T02:54:07;15.00;99.90
60727;DHT22;46577;49.004;12.120;2022-10-16T02:56:32;14.90;99.90
60727;DHT22;46577;49.004;12.120;2022-10-16T02:58:58;14.90;99.90
60727;DHT22;46577;49.004;12.120;2022-10-16T03:01:24;13.60;99.90
60727;DHT22;46577;49.004;12.120;2022-10-16T03:03:50;14.90;99.90
60727;DHT22;46577;49.004;12.120;2022-10-16T03:06:15;15.00;99.90
60727;DHT22;46577;49.004;12.120;2022-10-16T03:08:41;15.00;99.90
60727;DHT22;46577;49.004;12.120;2022-10-16T03:11:07;15.10;99.90
60727;DHT22;46577;49.004;12.120;2022-10-16T03:13:32;15.10;99.90
60727;DHT22;46577;49.004;12.120;2022-10-16T03:15:58;15.00;99.90
60727;DHT22;46577;49.004;12.120;2022-10-16T03:18:23;15.20;99.90
60727;DHT22;46577;49.004;12.120;2022-10-16T03:20:49;15.00;99.90
60727;DHT22;46577;49.004;12.120;2022-10-16T03:23:15;15.00;99.90
60727;DHT22;46577;49.004;12.120;2022-10-16T03:25:40;15.00;99.90
60727;DHT22;46577;49.004;12.120;2022-10-16T03:28:06;14.90;99.90
60727;DHT22;46577;49.004;12.120;2022-10-16T03:30:32;14.90;99.90
60727;DHT22;46577;49.004;12.120;2022-10-16T03:32:57;14.90;99.90
60727;DHT22;46577;49.004;12.120;2022-10-16T03:35:23;15.00;99.90
60727;DHT22;46577;49.004;12.120;2022-10-16T03:37:50;15.20;99.90
60727;DHT22;46577;49.004;12.120;2022-10-16T03:40:16;15.20;99.90
60727;DHT22;46577;49.004;12.120;2022-10-16T03:42:42;15.20;99.90
60727;DHT22;46577;49.004;12.120;2022-10-16T03:45:09;15.20;99.90
60727;DHT22;46577;49.004;12.120;2022-10-16T03:47:34;15.20;99.90
60727;DHT22;46577;49.004;12.120;2022-10-16T03:50:00;15.10;99.90
60727;DHT22;46577;49.004;12.120;2022-10-16T03:52:26;15.10;99.90
60727;DHT22;46577;49.004;12.120;2022-10-16T03:54:51;15.10;99.90
60727;DHT22;46577;49.004;12.120;2022-10-16T03:57:17;15.10;99.90
60727;DHT22;46577;49.004;12.120;2022-10-16T03:59:43;15.20;99.90
60727;DHT22;46577;49.004;12.120;2022-10-16T04:02:09;15.10;99.90
60727;DHT22;46577;49.004;12.120;2022-10-16T04:04:34;15.00;99.90
60727;DHT22;46577;49.004;12.120;2022-10-16T04:07:00;14.90;99.90
60727;DHT22;46577;49.004;12.120;2022-10-16T04:09:26;14.90;99.90
60727;DHT22;46577;49.004;12.120;2022-10-16T04:11:51;14.90;99.90
60727;DHT22;46577;49.004;12.120;2022-10-16T04:14:17;14.80;99.90
60727;DHT22;46577;49.004;12.120;2022-10-16T04:16:42;14.70;99.90
60727;DHT22;46577;49.004;12.120;2022-10-16T04:19:09;14.70;99.90
60727;DHT22;46577;49.004;12.120;2022-10-16T04:21:36;14.60;99.90
60727;DHT22;46577;49.004;12.120;2022-10-16T04:24:01;14.60;99.90
60727;DHT22;46577;49.004;12.120;2022-10-16T04:26:27;14.60;99.90
60727;DHT22;46577;49.004;12.120;2022-10-16T04:28:53;14.60;99.90
60727;DHT22;46577;49.004;12.120;2022-10-16T04:31:19;14.70;99.90
60727;DHT22;46577;49.004;12.120;2022-10-16T04:33:45;14.70;99.90
60727;DHT22;46577;49.004;12.120;2022-10-16T04:36:10;14.70;99.90
60727;DHT22;46577;49.004;12.120;2022-10-16T04:38:36;14.90;99.90
60727;DHT22;46577;49.004;12.120;2022-10-16T04:41:03;14.70;99.90
60727;DHT22;46577;49.004;12.120;2022-10-16T04:43:29;14.80;99.90
60727;DHT22;46577;49.004;12.120;2022-10-16T04:45:55;14.80;99.90
60727;DHT22;46577;49.004;12.120;2022-10-16T04:48:22;14.80;99.90
60727;DHT22;46577;49.004;12.120;2022-10-16T04:50:47;14.80;99.90
60727;DHT22;46577;49.004;12.120;2022-10-16T04:53:13;14.80;99.90
60727;DHT22;46577;49.004;12.120;2022-10-16T04:55:39;14.80;99.90
60727;DHT22;46577;49.004;12.120;2022-10-16T04:58:05;14.80;99.90
60727;DHT22;46577;49.004;12.120;2022-10-16T05:00:31;14.70;99.90
60727;DHT22;46577;49.004;12.120;2022-10-16T05:02:57;14.60;99.90
60727;DHT22;46577;49.004;12.120;2022-10-16T05:05:24;14.60;99.90
60727;DHT22;46577;49.004;12.120;2022-10-16T05:07:50;14.60;99.90
60727;DHT22;46577;49.004;12.120;2022-10-16T05:10:16;14.60;99.90
60727;DHT22;46577;49.004;12.120;2022-10-16T05:12:42;14.60;99.90
60727;DHT22;46577;49.004;12.120;2022-10-16T05:15:08;14.80;99.90
60727;DHT22;46577;49.004;12.120;2022-10-16T05:17:34;14.60;99.90
60727;DHT22;46577;49.004;12.120;2022-10-16T05:19:59;14.70;99.90
60727;DHT22;46577;49.004;12.120;2022-10-16T05:22:25;14.70;99.90
60727;DHT22;46577;49.004;12.120;2022-10-16T05:24:50;14.70;99.90
60727;DHT22;46577;49.004;12.120;2022-10-16T05:27:16;14.60;99.90
60727;DHT22;46577;49.004;12.120;2022-10-16T05:29:48;14.60;99.90
60727;DHT22;46577;49.004;12.120;2022-10-16T05:32:15;14.60;99.90
60727;DHT22;46577;49.004;12.120;2022-10-16T05:34:41;14.60;99.90
60727;DHT22;46577;49.004;12.120;2022-10-16T05:37:07;14.60;99.90
60727;DHT22;46577;49.004;12.120;2022-10-16T05:39:33;14.60;99.90
60727;DHT22;46577;49.004;12.120;2022-10-16T05:41:58;14.60;99.90
60727;DHT22;46577;49.004;12.120;2022-10-16T05:44:24;14.60;99.90
60727;DHT22;46577;49.004;12.120;2022-10-16T05:46:49;14.70;99.90
60727;DHT22;46577;49.004;12.120;2022-10-16T05:49:15;14.60;99.90
60727;DHT22;46577;49.004;12.120;2022-10-16T05:51:41;14.70;99.90
60727;DHT22;46577;49.004;12.120;2022-10-16T05:54:07;14.70;99.90
60727;DHT22;46577;49.004;12.120;2022-10-16T05:56:33;14.70;99.90
60727;DHT22;46577;49.004;12.120;2022-10-16T05:58:58;14.60;99.90
60727;DHT22;46577;49.004;12.120;2022-10-16T06:01:24;14.60;99.90
60727;DHT22;46577;49.004;12.120;2022-10-16T06:03:53;14.60;99.90
60727;DHT22;46577;49.004;12.120;2022-10-16T06:06:20;14.60;99.90
60727;DHT22;46577;49.004;12.120;2022-10-16T06:08:47;14.60;99.90
60727;DHT22;46577;49.004;12.120;2022-10-16T06:11:21;14.60;99.90
60727;DHT22;46577;49.004;12.120;2022-10-16T06:13:51;14.70;99.90
60727;DHT22;46577;49.004;12.120;2022-10-16T06:16:17;14.60;99.90
60727;DHT22;46577;49.004;12.120;2022-10-16T06:18:43;14.70;99.90
60727;DHT22;46577;49.004;12.120;2022-10-16T06:21:11;14.60;99.90
60727;DHT22;46577;49.004;12.120;2022-10-16T06:23:37;14.70;99.90
60727;DHT22;46577;49.004;12.120;2022-10-16T06:26:10;14.70;99.90
60727;DHT22;46577;49.004;12.120;2022-10-16T06:28:37;14.80;99.90
60727;DHT22;46577;49.004;12.120;2022-10-16T06:31:04;14.90;99.90
60727;DHT22;46577;49.004;12.120;2022-10-16T06:33:30;14.90;99.90
60727;DHT22;46577;49.004;12.120;2022-10-16T06:36:06;16.90;99.90
60727;DHT22;46577;49.004;12.120;2022-10-16T06:38:33;15.10;99.90
60727;DHT22;46577;49.004;12.120;2022-10-16T06:41:00;15.20;99.90
60727;DHT22;46577;49.004;12.120;2022-10-16T06:43:26;15.30;99.90
60727;DHT22;46577;49.004;12.120;2022-10-16T06:45:53;15.40;99.90
60727;DHT22;46577;49.004;12.120;2022-10-16T06:48:19;15.40;99.90
60727;DHT22;46577;49.004;12.120;2022-10-16T06:50:58;15.50;99.90
60727;DHT22;46577;49.004;12.120;2022-10-16T06:53:24;15.50;99.90
60727;DHT22;46577;49.004;12.120;2022-10-16T06:55:51;15.80;99.90
60727;DHT22;46577;49.004;12.120;2022-10-16T06:58:16;15.70;99.90
60727;DHT22;46577;49.004;12.120;2022-10-16T07:00:42;15.70;99.90
60727;DHT22;46577;49.004;12.120;2022-10-16T07:03:07;15.70;99.90
60727;DHT22;46577;49.004;12.120;2022-10-16T07:05:40;15.80;99.90
60727;DHT22;46577;49.004;12.120;2022-10-16T07:08:06;15.90;99.90
60727;DHT22;46577;49.004;12.120;2022-10-16T07:10:33;16.10;99.90
60727;DHT22;46577;49.004;12.120;2022-10-16T07:12:58;16.10;99.90
60727;DHT22;46577;49.004;12.120;2022-10-16T07:15:25;16.00;99.90
60727;DHT22;46577;49.004;12.120;2022-10-16T07:17:51;16.00;99.90
60727;DHT22;46577;49.004;12.120;2022-10-16T07:20:16;16.00;99.90
60727;DHT22;46577;49.004;12.120;2022-10-16T07:22:42;16.30;99.90
60727;DHT22;46577;49.004;12.120;2022-10-16T07:25:08;16.60;99.90
60727;DHT22;46577;49.004;12.120;2022-10-16T07:27:33;16.80;99.90
60727;DHT22;46577;49.004;12.120;2022-10-16T07:29:59;17.00;99.90
60727;DHT22;46577;49.004;12.120;2022-10-16T07:32:25;17.30;99.90
60727;DHT22;46577;49.004;12.120;2022-10-16T07:34:52;17.40;99.90
60727;DHT22;46577;49.004;12.120;2022-10-16T07:37:17;17.50;99.90
60727;DHT22;46577;49.004;12.120;2022-10-16T07:39:43;17.90;99.90
60727;DHT22;46577;49.004;12.120;2022-10-16T07:42:08;18.20;99.90
60727;DHT22;46577;49.004;12.120;2022-10-16T07:44:34;19.30;99.90
60727;DHT22;46577;49.004;12.120;2022-10-16T07:47:00;18.60;99.90
60727;DHT22;46577;49.004;12.120;2022-10-16T07:49:25;19.00;99.90
60727;DHT22;46577;49.004;12.120;2022-10-16T07:51:51;19.40;99.90
60727;DHT22;46577;49.004;12.120;2022-10-16T07:54:16;19.70;99.90
60727;DHT22;46577;49.004;12.120;2022-10-16T07:56:42;19.90;99.90
60727;DHT22;46577;49.004;12.120;2022-10-16T07:59:08;20.10;99.90
60727;DHT22;46577;49.004;12.120;2022-10-16T08:01:33;20.80;99.90
60727;DHT22;46577;49.004;12.120;2022-10-16T08:03:59;23.00;99.90
60727;DHT22;46577;49.004;12.120;2022-10-16T08:06:25;24.30;99.90
60727;DHT22;46577;49.004;12.120;2022-10-16T08:08:50;25.50;98.00
60727;DHT22;46577;49.004;12.120;2022-10-16T08:11:16;27.10;92.90
60727;DHT22;46577;49.004;12.120;2022-10-16T08:13:42;27.20;89.80
60727;DHT22;46577;49.004;12.120;2022-10-16T08:16:08;27.40;85.20
60727;DHT22;46577;49.004;12.120;2022-10-16T08:18:38;26.40;86.70
60727;DHT22;46577;49.004;12.120;2022-10-16T08:21:05;25.20;91.60
60727;DHT22;46577;49.004;12.120;2022-10-16T08:23:32;25.10;93.40
60727;DHT22;46577;49.004;12.120;2022-10-16T08:26:03;27.00;90.50
60727;DHT22;46577;49.004;12.120;2022-10-16T08:28:29;29.50;78.10
60727;DHT22;46577;49.004;12.120;2022-10-16T08:30:55;31.80;65.00
60727;DHT22;46577;49.004;12.120;2022-10-16T08:33:22;32.00;60.70
60727;DHT22;46577;49.004;12.120;2022-10-16T08:35:52;31.80;58.60
60727;DHT22;46577;49.004;12.120;2022-10-16T08:38:18;31.10;60.40
60727;DHT22;46577;49.004;12.120;2022-10-16T08:40:44;31.20;59.20
60727;DHT22;46577;49.004;12.120;2022-10-16T08:48:29;30.40;57.90
60727;DHT22;46577;49.004;12.120;2022-10-16T08:50:55;28.50;63.30
60727;DHT22;46577;49.004;12.120;2022-10-16T08:53:28;26.80;68.10
60727;DHT22;46577;49.004;12.120;2022-10-16T08:55:55;25.40;75.00
60727;DHT22;46577;49.004;12.120;2022-10-16T08:58:22;25.30;78.10
60727;DHT22;46577;49.004;12.120;2022-10-16T09:00:56;25.20;78.60
60727;DHT22;46577;49.004;12.120;2022-10-16T09:17:37;30.90;59.50
60727;DHT22;46577;49.004;12.120;2022-10-16T09:22:45;30.40;58.40
60727;DHT22;46577;49.004;12.120;2022-10-16T09:25:14;30.10;59.60
60727;DHT22;46577;49.004;12.120;2022-10-16T09:27:41;31.60;57.30
60727;DHT22;46577;49.004;12.120;2022-10-16T09:30:12;33.30;53.50
60727;DHT22;46577;49.004;12.120;2022-10-16T09:32:39;34.00;50.20
60727;DHT22;46577;49.004;12.120;2022-10-16T09:35:13;34.20;49.20
60727;DHT22;46577;49.004;12.120;2022-10-16T09:37:40;34.80;46.70
60727;DHT22;46577;49.004;12.120;2022-10-16T09:40:11;33.40;48.70
60727;DHT22;46577;49.004;12.120;2022-10-16T09:42:37;33.20;49.00
60727;DHT22;46577;49.004;12.120;2022-10-16T09:45:03;33.40;50.80
60727;DHT22;46577;49.004;12.120;2022-10-16T09:47:31;34.50;47.30
60727;DHT22;46577;49.004;12.120;2022-10-16T09:50:03;34.50;46.20
60727;DHT22;46577;49.004;12.120;2022-10-16T09:52:32;34.10;46.70
60727;DHT22;46577;49.004;12.120;2022-10-16T09:55:00;33.90;47.90
60727;DHT22;46577;49.004;12.120;2022-10-16T09:57:26;34.40;46.80
60727;DHT22;46577;49.004;12.120;2022-10-16T09:59:54;33.30;46.80
60727;DHT22;46577;49.004;12.120;2022-10-16T10:02:31;33.70;47.20
60727;DHT22;46577;49.004;12.120;2022-10-16T10:04:59;34.30;47.60
60727;DHT22;46577;49.004;12.120;2022-10-16T10:07:27;35.60;44.80
60727;DHT22;46577;49.004;12.120;2022-10-16T10:09:54;36.50;43.90
60727;DHT22;46577;49.004;12.120;2022-10-16T10:12:25;36.00;42.40
60727;DHT22;46577;49.004;12.120;2022-10-16T10:14:53;35.50;43.20
60727;DHT22;46577;49.004;12.120;2022-10-16T10:17:27;34.60;44.30
60727;DHT22;46577;49.004;12.120;2022-10-16T10:19:59;34.50;44.60
60727;DHT22;46577;49.004;12.120;2022-10-16T10:33:25;30.20;52.90
60727;DHT22;46577;49.004;12.120;2022-10-16T10:36:16;29.30;54.70
60727;DHT22;46577;49.004;12.120;2022-10-16T10:41:59;28.60;58.20
60727;DHT22;46577;49.004;12.120;2022-10-16T10:50:26;29.90;55.80
60727;DHT22;46577;49.004;12.120;2022-10-16T10:53:21;28.90;57.10
60727;DHT22;46577;49.004;12.120;2022-10-16T10:56:02;27.90;60.10
60727;DHT22;46577;49.004;12.120;2022-10-16T10:58:43;27.30;63.50
60727;DHT22;46577;49.004;12.120;2022-10-16T11:01:30;27.20;63.50
60727;DHT22;46577;49.004;12.120;2022-10-16T11:06:59;26.50;67.90
60727;DHT22;46577;49.004;12.120;2022-10-16T11:09:41;26.20;69.40
60727;DHT22;46577;49.004;12.120;2022-10-16T11:12:30;26.90;68.10
60727;DHT22;46577;49.004;12.120;2022-10-16T11:15:23;27.60;65.70
60727;DHT22;46577;49.004;12.120;2022-10-16T11:18:00;27.90;64.40
60727;DHT22;46577;49.004;12.120;2022-10-16T11:20:32;28.10;64.60
60727;DHT22;46577;49.004;12.120;2022-10-16T11:23:07;27.40;66.00
60727;DHT22;46577;49.004;12.120;2022-10-16T11:25:35;27.30;66.10
60727;DHT22;46577;49.004;12.120;2022-10-16T11:28:19;27.60;67.20
60727;DHT22;46577;49.004;12.120;2022-10-16T11:33:52;31.20;57.40
60727;DHT22;46577;49.004;12.120;2022-10-16T11:36:23;32.20;53.40
60727;DHT22;46577;49.004;12.120;2022-10-16T11:39:02;31.60;54.90
60727;DHT22;46577;49.004;12.120;2022-10-16T11:49:44;34.70;48.80
60727;DHT22;46577;49.004;12.120;2022-10-16T11:52:21;36.00;47.30
60727;DHT22;46577;49.004;12.120;2022-10-16T11:54:53;37.10;43.20
60727;DHT22;46577;49.004;12.120;2022-10-16T11:57:26;37.10;42.60
60727;DHT22;46577;49.004;12.120;2022-10-16T12:05:25;36.70;42.70
60727;DHT22;46577;49.004;12.120;2022-10-16T12:08:09;36.30;42.20
60727;DHT22;46577;49.004;12.120;2022-10-16T12:10:37;36.10;42.60
60727;DHT22;46577;49.004;12.120;2022-10-16T12:18:40;37.20;41.40
60727;DHT22;46577;49.004;12.120;2022-10-16T12:21:07;37.80;40.30
60727;DHT22;46577;49.004;12.120;2022-10-16T12:23:37;38.00;39.30
60727;DHT22;46577;49.004;12.120;2022-10-16T12:26:04;37.30;40.50
60727;DHT22;46577;49.004;12.120;2022-10-16T12:28:32;37.00;41.60
60727;DHT22;46577;49.004;12.120;2022-10-16T12:31:07;36.40;40.90
60727;DHT22;46577;49.004;12.120;2022-10-16T12:33:36;35.10;43.50
60727;DHT22;46577;49.004;12.120;2022-10-16T12:36:26;34.70;44.40
60727;DHT22;46577;49.004;12.120;2022-10-16T12:38:52;34.40;45.30
60727;DHT22;46577;49.004;12.120;2022-10-16T12:41:30;34.30;45.50
60727;DHT22;46577;49.004;12.120;2022-10-16T12:43:56;33.70;47.00
60727;DHT22;46577;49.004;12.120;2022-10-16T12:51:40;31.00;52.60
60727;DHT22;46577;49.004;12.120;2022-10-16T12:54:18;30.50;52.50
60727;DHT22;46577;49.004;12.120;2022-10-16T12:56:51;30.10;53.80
60727;DHT22;46577;49.004;12.120;2022-10-16T13:02:51;29.00;56.30
60727;DHT22;46577;49.004;12.120;2022-10-16T13:22:11;27.10;65.60
60727;DHT22;46577;49.004;12.120;2022-10-16T13:27:14;27.00;66.30
60727;DHT22;46577;49.004;12.120;2022-10-16T13:29:43;27.10;67.40
60727;DHT22;46577;49.004;12.120;2022-10-16T13:32:11;27.20;67.60
60727;DHT22;46577;49.004;12.120;2022-10-16T13:34:45;26.60;68.30
60727;DHT22;46577;49.004;12.120;2022-10-16T13:37:20;26.00;71.10
60727;DHT22;46577;49.004;12.120;2022-10-16T13:39:47;25.40;74.00
60727;DHT22;46577;49.004;12.120;2022-10-16T13:44:50;24.40;79.80
60727;DHT22;46577;49.004;12.120;2022-10-16T13:47:27;24.20;82.80
60727;DHT22;46577;49.004;12.120;2022-10-16T13:50:01;24.00;85.30
60727;DHT22;46577;49.004;12.120;2022-10-16T13:52:27;23.80;88.30
60727;DHT22;46577;49.004;12.120;2022-10-16T13:54:53;23.70;90.60
60727;DHT22;46577;49.004;12.120;2022-10-16T13:57:22;23.60;91.70
60727;DHT22;46577;49.004;12.120;2022-10-16T13:59:48;23.40;93.20
60727;DHT22;46577;49.004;12.120;2022-10-16T14:02:30;23.40;94.40
60727;DHT22;46577;49.004;12.120;2022-10-16T14:04:57;23.40;95.50
60727;DHT22;46577;49.004;12.120;2022-10-16T14:07:29;23.20;96.80
60727;DHT22;46577;49.004;12.120;2022-10-16T14:10:03;23.10;97.50
60727;DHT22;46577;49.004;12.120;2022-10-16T14:12:30;22.90;98.20
60727;DHT22;46577;49.004;12.120;2022-10-16T14:14:57;22.80;99.40
60727;DHT22;46577;49.004;12.120;2022-10-16T14:17:26;22.70;99.90
60727;DHT22;46577;49.004;12.120;2022-10-16T14:19:55;22.70;99.90
60727;DHT22;46577;49.004;12.120;2022-10-16T14:22:29;22.70;99.90
60727;DHT22;46577;49.004;12.120;2022-10-16T14:24:55;22.60;99.90
60727;DHT22;46577;49.004;12.120;2022-10-16T14:27:35;22.70;99.90
60727;DHT22;46577;49.004;12.120;2022-10-16T14:30:13;22.60;99.90
60727;DHT22;46577;49.004;12.120;2022-10-16T14:32:54;22.60;99.90
60727;DHT22;46577;49.004;12.120;2022-10-16T14:37:53;22.60;99.90
60727;DHT22;46577;49.004;12.120;2022-10-16T14:40:22;22.70;99.90
60727;DHT22;46577;49.004;12.120;2022-10-16T14:42:48;22.70;99.90
60727;DHT22;46577;49.004;12.120;2022-10-16T14:45:18;22.70;99.90
60727;DHT22;46577;49.004;12.120;2022-10-16T14:47:52;22.60;99.90
60727;DHT22;46577;49.004;12.120;2022-10-16T14:50:19;22.50;99.90
60727;DHT22;46577;49.004;12.120;2022-10-16T14:52:44;22.30;99.90
60727;DHT22;46577;49.004;12.120;2022-10-16T14:55:10;22.10;99.90
60727;DHT22;46577;49.004;12.120;2022-10-16T14:57:37;22.00;99.90
60727;DHT22;46577;49.004;12.120;2022-10-16T15:00:16;22.00;99.90
60727;DHT22;46577;49.004;12.120;2022-10-16T15:02:42;21.90;99.90
60727;DHT22;46577;49.004;12.120;2022-10-16T15:05:23;21.80;99.90
60727;DHT22;46577;49.004;12.120;2022-10-16T15:07:50;21.70;99.90
60727;DHT22;46577;49.004;12.120;2022-10-16T15:10:17;21.50;99.90
60727;DHT22;46577;49.004;12.120;2022-10-16T15:12:43;21.50;99.90
60727;DHT22;46577;49.004;12.120;2022-10-16T15:15:37;21.50;99.90
60727;DHT22;46577;49.004;12.120;2022-10-16T15:18:04;21.50;99.90
60727;DHT22;46577;49.004;12.120;2022-10-16T15:20:35;21.40;99.90
60727;DHT22;46577;49.004;12.120;2022-10-16T15:23:05;21.40;99.90
60727;DHT22;46577;49.004;12.120;2022-10-16T15:28:03;21.20;99.90
60727;DHT22;46577;49.004;12.120;2022-10-16T15:30:28;21.20;99.90
60727;DHT22;46577;49.004;12.120;2022-10-16T15:32:54;21.10;99.90
60727;DHT22;46577;49.004;12.120;2022-10-16T15:35:20;21.00;99.90
60727;DHT22;46577;49.004;12.120;2022-10-16T15:37:47;21.00;99.90
60727;DHT22;46577;49.004;12.120;2022-10-16T15:40:13;20.90;99.90
60727;DHT22;46577;49.004;12.120;2022-10-16T15:42:39;20.70;99.90
60727;DHT22;46577;49.004;12.120;2022-10-16T15:45:05;20.70;99.90
60727;DHT22;46577;49.004;12.120;2022-10-16T15:47:32;20.70;99.90
60727;DHT22;46577;49.004;12.120;2022-10-16T15:49:57;20.70;99.90
60727;DHT22;46577;49.004;12.120;2022-10-16T15:52:23;20.50;99.90
60727;DHT22;46577;49.004;12.120;2022-10-16T15:54:49;20.50;99.90
60727;DHT22;46577;49.004;12.120;2022-10-16T15:57:14;20.40;99.90
60727;DHT22;46577;49.004;12.120;2022-10-16T15:59:40;20.30;99.90
60727;DHT22;46577;49.004;12.120;2022-10-16T16:02:07;20.20;99.90
60727;DHT22;46577;49.004;12.120;2022-10-16T16:04:33;20.10;99.90
60727;DHT22;46577;49.004;12.120;2022-10-16T16:06:58;20.10;99.90
60727;DHT22;46577;49.004;12.120;2022-10-16T16:09:24;20.10;99.90
60727;DHT22;46577;49.004;12.120;2022-10-16T16:11:49;20.10;99.90
60727;DHT22;46577;49.004;12.120;2022-10-16T16:14:17;20.00;99.90
60727;DHT22;46577;49.004;12.120;2022-10-16T16:16:43;19.90;99.90
60727;DHT22;46577;49.004;12.120;2022-10-16T16:19:08;19.70;99.90
60727;DHT22;46577;49.004;12.120;2022-10-16T16:21:34;19.60;99.90
60727;DHT22;46577;49.004;12.120;2022-10-16T16:24:00;19.60;99.90
60727;DHT22;46577;49.004;12.120;2022-10-16T16:26:28;19.50;99.90
60727;DHT22;46577;49.004;12.120;2022-10-16T16:28:57;19.50;99.90
60727;DHT22;46577;49.004;12.120;2022-10-16T16:31:24;19.40;99.90
60727;DHT22;46577;49.004;12.120;2022-10-16T16:33:50;19.30;99.90
60727;DHT22;46577;49.004;12.120;2022-10-16T16:36:17;19.20;99.90
60727;DHT22;46577;49.004;12.120;2022-10-16T16:38:43;19.20;99.90
60727;DHT22;46577;49.004;12.120;2022-10-16T16:41:17;19.10;99.90
60727;DHT22;46577;49.004;12.120;2022-10-16T16:43:44;19.00;99.90
60727;DHT22;46577;49.004;12.120;2022-10-16T16:46:10;19.00;99.90
60727;DHT22;46577;49.004;12.120;2022-10-16T16:48:37;19.00;99.90
60727;DHT22;46577;49.004;12.120;2022-10-16T16:51:05;18.90;99.90
60727;DHT22;46577;49.004;12.120;2022-10-16T16:53:32;18.90;99.90
60727;DHT22;46577;49.004;12.120;2022-10-16T16:56:04;18.80;99.90
60727;DHT22;46577;49.004;12.120;2022-10-16T16:58:30;18.70;99.90
60727;DHT22;46577;49.004;12.120;2022-10-16T17:00:56;18.70;99.90
60727;DHT22;46577;49.004;12.120;2022-10-16T17:03:26;18.60;99.90
60727;DHT22;46577;49.004;12.120;2022-10-16T17:06:03;18.60;99.90
60727;DHT22;46577;49.004;12.120;2022-10-16T17:08:30;18.60;99.90
60727;DHT22;46577;49.004;12.120;2022-10-16T17:10:57;18.50;99.90
60727;DHT22;46577;49.004;12.120;2022-10-16T17:13:23;18.50;99.90
60727;DHT22;46577;49.004;12.120;2022-10-16T17:15:50;18.40;99.90
60727;DHT22;46577;49.004;12.120;2022-10-16T17:18:16;18.40;99.90
60727;DHT22;46577;49.004;12.120;2022-10-16T17:20:48;18.30;99.90
60727;DHT22;46577;49.004;12.120;2022-10-16T17:23:15;18.30;99.90